createdAt,value
2017-09-22T00:00:51.392Z,9.70
2017-09-22T00:01:51.391Z,9.70
2017-09-22T00:02:51.389Z,9.70
2017-09-22T00:03:51.404Z,9.70
2017-09-22T00:04:51.300Z,9.70
2017-09-22T00:05:51.344Z,9.70
2017-09-22T00:06:51.345Z,9.70
2017-09-22T00:07:51.350Z,9.70
2017-09-22T00:08:51.398Z,9.70
2017-09-22T00:09:51.353Z,9.70
2017-09-22T00:10:51.410Z,10.80
2017-09-22T00:11:51.345Z,10.80
2017-09-22T00:12:51.398Z,10.80
2017-09-22T00:13:51.401Z,10.80
2017-09-22T00:14:51.352Z,10.80
2017-09-22T00:15:51.418Z,10.80
2017-09-22T00:16:51.354Z,10.80
2017-09-22T00:17:51.419Z,10.80
2017-09-22T00:18:51.417Z,10.80
2017-09-22T00:19:51.360Z,10.80
2017-09-22T00:20:51.299Z,8.80
2017-09-22T00:21:51.273Z,8.80
2017-09-22T00:22:51.316Z,8.80
2017-09-22T00:23:51.359Z,8.80
2017-09-22T00:24:51.314Z,8.80
2017-09-22T00:25:51.326Z,8.80
2017-09-22T00:26:51.297Z,8.80
2017-09-22T00:27:51.308Z,8.80
2017-09-22T00:28:51.365Z,8.80
2017-09-22T00:29:51.367Z,8.80
2017-09-22T00:30:51.325Z,7.70
2017-09-22T00:31:51.369Z,7.70
2017-09-22T00:32:51.354Z,7.70
2017-09-22T00:33:51.326Z,7.70
2017-09-22T00:34:51.396Z,7.70
2017-09-22T00:35:51.355Z,7.70
2017-09-22T00:36:51.396Z,7.70
2017-09-22T00:37:51.375Z,7.70
2017-09-22T00:38:51.406Z,7.70
2017-09-22T00:39:51.377Z,7.70
2017-09-22T00:40:51.407Z,7.50
2017-09-22T00:41:51.368Z,7.50
2017-09-22T00:42:51.363Z,7.50
2017-09-22T00:43:51.365Z,7.50
2017-09-22T00:44:51.367Z,7.50
2017-09-22T00:45:51.368Z,7.50
2017-09-22T00:46:51.373Z,7.50
2017-09-22T00:47:51.417Z,7.50
2017-09-22T00:48:51.416Z,7.50
2017-09-22T00:49:51.369Z,7.50
2017-09-22T00:50:51.420Z,6.70
2017-09-22T00:51:51.419Z,6.70
2017-09-22T00:52:51.436Z,6.70
2017-09-22T00:53:51.380Z,6.70
2017-09-22T00:54:51.381Z,6.70
2017-09-22T00:55:51.436Z,6.70
2017-09-22T00:56:51.377Z,6.70
2017-09-22T00:57:51.426Z,6.70
2017-09-22T00:58:51.378Z,6.70
2017-09-22T00:59:51.463Z,6.70
2017-09-22T01:00:51.338Z,10.00
2017-09-22T01:01:51.394Z,10.00
2017-09-22T01:02:51.314Z,10.00
2017-09-22T01:03:51.347Z,10.00
2017-09-22T01:04:51.349Z,10.00
2017-09-22T01:05:51.397Z,10.00
2017-09-22T01:06:51.349Z,10.00
2017-09-22T01:07:51.344Z,10.00
2017-09-22T01:08:51.318Z,10.00
2017-09-22T01:09:51.348Z,10.00
2017-09-22T01:10:51.428Z,7.10
2017-09-22T01:11:51.348Z,7.10
2017-09-22T01:12:51.377Z,7.10
2017-09-22T01:13:51.488Z,7.10
2017-09-22T01:14:51.429Z,7.10
2017-09-22T01:15:51.384Z,7.10
2017-09-22T01:16:51.386Z,7.10
2017-09-22T01:17:51.386Z,7.10
2017-09-22T01:18:51.431Z,7.10
2017-09-22T01:19:51.428Z,7.10
2017-09-22T01:20:51.394Z,8.20
2017-09-22T01:21:51.384Z,8.20
2017-09-22T01:22:51.425Z,8.20
2017-09-22T01:23:51.364Z,8.20
2017-09-22T01:24:51.349Z,8.20
2017-09-22T01:25:51.420Z,8.20
2017-09-22T01:26:51.387Z,8.20
2017-09-22T01:27:51.367Z,8.20
2017-09-22T01:28:51.386Z,8.20
2017-09-22T01:29:51.384Z,8.20
2017-09-22T01:30:51.395Z,8.90
2017-09-22T01:31:51.404Z,8.90
2017-09-22T01:32:51.458Z,8.90
2017-09-22T01:33:51.457Z,8.90
2017-09-22T01:34:51.458Z,8.90
2017-09-22T01:35:51.458Z,8.90
2017-09-22T01:36:51.448Z,8.90
2017-09-22T01:37:51.483Z,8.90
2017-09-22T01:38:51.409Z,8.90
2017-09-22T01:39:51.462Z,8.90
2017-09-22T01:40:51.273Z,7.00
2017-09-22T01:41:51.336Z,7.00
2017-09-22T01:42:51.327Z,7.00
2017-09-22T01:43:51.325Z,7.00
2017-09-22T01:44:51.281Z,7.00
2017-09-22T01:45:51.328Z,7.00
2017-09-22T01:46:51.341Z,7.00
2017-09-22T01:47:51.328Z,7.00
2017-09-22T01:48:51.446Z,7.00
2017-09-22T01:49:51.283Z,7.00
2017-09-22T01:50:51.366Z,7.00
2017-09-22T01:51:51.369Z,7.00
2017-09-22T01:52:51.400Z,7.00
2017-09-22T01:53:51.406Z,7.00
2017-09-22T01:54:51.370Z,7.00
2017-09-22T01:55:51.344Z,7.00
2017-09-22T01:56:51.374Z,7.00
2017-09-22T01:57:51.379Z,7.00
2017-09-22T01:58:51.404Z,7.00
2017-09-22T01:59:51.346Z,7.00
2017-09-22T02:00:51.381Z,5.80
2017-09-22T02:01:51.450Z,5.80
2017-09-22T02:02:51.384Z,5.80
2017-09-22T02:03:51.361Z,5.80
2017-09-22T02:04:51.404Z,5.80
2017-09-22T02:05:51.418Z,5.80
2017-09-22T02:06:51.359Z,5.80
2017-09-22T02:07:51.386Z,5.80
2017-09-22T02:08:51.367Z,5.80
2017-09-22T02:09:51.416Z,5.80
2017-09-22T02:10:51.394Z,6.60
2017-09-22T02:11:51.413Z,6.60
2017-09-22T02:12:51.363Z,6.60
2017-09-22T02:13:51.461Z,6.60
2017-09-22T02:14:51.413Z,6.60
2017-09-22T02:15:51.395Z,6.60
2017-09-22T02:16:51.435Z,6.60
2017-09-22T02:17:51.428Z,6.60
2017-09-22T02:18:51.417Z,6.60
2017-09-22T02:19:51.371Z,6.60
2017-09-22T02:20:51.470Z,7.20
2017-09-22T02:21:51.421Z,7.20
2017-09-22T02:22:51.419Z,7.20
2017-09-22T02:23:51.406Z,7.20
2017-09-22T02:24:51.469Z,7.20
2017-09-22T02:25:51.489Z,7.20
2017-09-22T02:26:51.475Z,7.20
2017-09-22T02:27:51.430Z,7.20
2017-09-22T02:28:51.427Z,7.20
2017-09-22T02:29:51.438Z,7.20
2017-09-22T02:30:51.431Z,8.20
2017-09-22T02:31:51.436Z,8.20
2017-09-22T02:32:51.414Z,8.20
2017-09-22T02:33:51.480Z,8.20
2017-09-22T02:34:51.496Z,8.20
2017-09-22T02:35:51.430Z,8.20
2017-09-22T02:36:51.481Z,8.20
2017-09-22T02:37:51.431Z,8.20
2017-09-22T02:38:51.433Z,8.20
2017-09-22T02:39:51.449Z,8.20
2017-09-22T02:40:51.435Z,6.50
2017-09-22T02:41:51.436Z,6.50
2017-09-22T02:42:51.435Z,6.50
2017-09-22T02:43:51.434Z,6.50
2017-09-22T02:44:51.438Z,6.50
2017-09-22T02:45:51.435Z,6.50
2017-09-22T02:46:51.503Z,6.50
2017-09-22T02:47:51.443Z,6.50
2017-09-22T02:48:51.510Z,6.50
2017-09-22T02:49:51.493Z,6.50
2017-09-22T02:50:51.393Z,6.00
2017-09-22T02:51:51.372Z,6.00
2017-09-22T02:52:51.385Z,6.00
2017-09-22T02:53:51.387Z,6.00
2017-09-22T02:54:51.325Z,6.00
2017-09-22T02:55:51.368Z,6.00
2017-09-22T02:56:51.400Z,6.00
2017-09-22T02:57:51.388Z,6.00
2017-09-22T02:58:51.375Z,6.00
2017-09-22T02:59:51.371Z,6.00
2017-09-22T03:00:51.458Z,5.80
2017-09-22T03:01:51.484Z,5.80
2017-09-22T03:02:51.449Z,5.80
2017-09-22T03:03:51.493Z,5.80
2017-09-22T03:04:51.463Z,5.80
2017-09-22T03:05:51.466Z,5.80
2017-09-22T03:06:51.455Z,5.80
2017-09-22T03:07:51.454Z,5.80
2017-09-22T03:08:51.521Z,5.80
2017-09-22T03:09:51.504Z,5.80
2017-09-22T03:10:51.392Z,7.00
2017-09-22T03:11:51.391Z,7.00
2017-09-22T03:12:51.447Z,7.00
2017-09-22T03:13:51.456Z,7.00
2017-09-22T03:14:51.415Z,7.00
2017-09-22T03:15:51.424Z,7.00
2017-09-22T03:16:51.423Z,7.00
2017-09-22T03:17:51.473Z,7.00
2017-09-22T03:18:51.396Z,7.00
2017-09-22T03:19:51.397Z,7.00
2017-09-22T03:20:51.398Z,6.60
2017-09-22T03:21:51.424Z,6.60
2017-09-22T03:22:51.431Z,6.60
2017-09-22T03:23:51.398Z,6.60
2017-09-22T03:24:51.424Z,6.60
2017-09-22T03:25:51.397Z,6.60
2017-09-22T03:26:51.425Z,6.60
2017-09-22T03:27:51.431Z,6.60
2017-09-22T03:28:51.430Z,6.60
2017-09-22T03:29:51.474Z,6.60
2017-09-22T03:30:51.466Z,5.90
2017-09-22T03:31:51.509Z,5.90
2017-09-22T03:32:51.538Z,5.90
2017-09-22T03:33:51.512Z,5.90
2017-09-22T03:34:51.472Z,5.90
2017-09-22T03:35:51.463Z,5.90
2017-09-22T03:36:51.467Z,5.90
2017-09-22T03:37:51.484Z,5.90
2017-09-22T03:38:51.518Z,5.90
2017-09-22T03:39:51.473Z,5.90
2017-09-22T03:40:51.521Z,6.50
2017-09-22T03:41:51.520Z,6.50
2017-09-22T03:42:51.490Z,6.50
2017-09-22T03:43:51.517Z,6.50
2017-09-22T03:44:51.418Z,6.50
2017-09-22T03:45:51.499Z,6.50
2017-09-22T03:46:51.528Z,6.50
2017-09-22T03:47:51.521Z,6.50
2017-09-22T03:48:51.544Z,6.50
2017-09-22T03:49:51.521Z,6.50
2017-09-22T03:50:51.500Z,6.20
2017-09-22T03:51:51.525Z,6.20
2017-09-22T03:52:51.480Z,6.20
2017-09-22T03:53:51.478Z,6.20
2017-09-22T03:54:51.477Z,6.20
2017-09-22T03:55:51.479Z,6.20
2017-09-22T03:56:51.524Z,6.20
2017-09-22T03:57:51.550Z,6.20
2017-09-22T03:58:51.529Z,6.20
2017-09-22T03:59:51.534Z,6.20
2017-09-22T04:00:51.526Z,6.20
2017-09-22T04:01:51.533Z,8.40
2017-09-22T04:02:51.479Z,8.40
2017-09-22T04:03:51.529Z,8.40
2017-09-22T04:04:51.523Z,8.40
2017-09-22T04:05:51.456Z,8.40
2017-09-22T04:06:51.491Z,8.40
2017-09-22T04:07:51.486Z,8.40
2017-09-22T04:08:51.533Z,8.40
2017-09-22T04:09:51.461Z,8.40
2017-09-22T04:10:51.485Z,8.40
2017-09-22T04:11:51.557Z,8.50
2017-09-22T04:12:51.533Z,8.50
2017-09-22T04:13:51.491Z,8.50
2017-09-22T04:14:51.539Z,8.50
2017-09-22T04:15:51.492Z,8.50
2017-09-22T04:16:51.519Z,8.50
2017-09-22T04:17:51.535Z,8.50
2017-09-22T04:18:51.506Z,8.50
2017-09-22T04:19:51.539Z,8.50
2017-09-22T04:20:51.542Z,8.50
2017-09-22T04:21:51.541Z,7.50
2017-09-22T04:22:51.545Z,7.50
2017-09-22T04:23:51.497Z,7.50
2017-09-22T04:24:51.571Z,7.50
2017-09-22T04:25:51.495Z,7.50
2017-09-22T04:26:51.498Z,7.50
2017-09-22T04:27:51.494Z,7.50
2017-09-22T04:28:51.506Z,7.50
2017-09-22T04:29:51.543Z,7.50
2017-09-22T04:30:51.530Z,7.50
2017-09-22T04:31:51.514Z,8.10
2017-09-22T04:32:51.626Z,8.10
2017-09-22T04:33:51.536Z,8.10
2017-09-22T04:34:51.476Z,8.10
2017-09-22T04:35:51.499Z,8.10
2017-09-22T04:36:51.474Z,8.10
2017-09-22T04:37:51.517Z,8.10
2017-09-22T04:38:51.548Z,8.10
2017-09-22T04:39:51.450Z,8.10
2017-09-22T04:40:51.536Z,8.10
2017-09-22T04:41:51.506Z,7.10
2017-09-22T04:42:51.556Z,7.10
2017-09-22T04:43:51.473Z,7.10
2017-09-22T04:44:51.490Z,7.10
2017-09-22T04:45:51.561Z,7.10
2017-09-22T04:46:51.556Z,7.10
2017-09-22T04:47:51.667Z,7.10
2017-09-22T04:48:51.562Z,7.10
2017-09-22T04:49:51.523Z,7.10
2017-09-22T04:50:51.513Z,7.10
2017-09-22T04:51:51.479Z,9.00
2017-09-22T04:52:51.517Z,9.00
2017-09-22T04:53:51.480Z,9.00
2017-09-22T04:54:51.477Z,9.00
2017-09-22T04:55:51.477Z,9.00
2017-09-22T04:56:51.454Z,9.00
2017-09-22T04:57:51.454Z,9.00
2017-09-22T04:58:51.530Z,9.00
2017-09-22T04:59:51.482Z,9.00
2017-09-22T05:00:51.480Z,9.00
2017-09-22T05:01:51.547Z,9.10
2017-09-22T05:02:51.515Z,9.10
2017-09-22T05:03:51.516Z,9.10
2017-09-22T05:04:51.488Z,9.10
2017-09-22T05:05:51.565Z,9.10
2017-09-22T05:06:51.535Z,9.10
2017-09-22T05:07:51.559Z,9.10
2017-09-22T05:08:51.565Z,9.10
2017-09-22T05:09:51.487Z,9.10
2017-09-22T05:10:51.423Z,0.00
2017-09-22T05:11:51.427Z,0.00
2017-09-22T05:12:51.424Z,0.00
2017-09-22T05:13:51.426Z,0.00
2017-09-22T05:14:51.427Z,0.00
2017-09-22T05:15:51.430Z,0.00
2017-09-22T05:16:51.428Z,0.00
2017-09-22T05:17:51.429Z,0.00
2017-09-22T05:18:51.431Z,0.00
2017-09-22T05:19:51.431Z,0.00
2017-09-22T05:20:51.529Z,7.80
2017-09-22T05:21:51.467Z,7.80
2017-09-22T05:22:51.494Z,7.80
2017-09-22T05:23:51.530Z,7.80
2017-09-22T05:24:51.597Z,7.80
2017-09-22T05:25:51.497Z,7.80
2017-09-22T05:26:51.485Z,7.80
2017-09-22T05:27:51.494Z,7.80
2017-09-22T05:28:51.498Z,7.80
2017-09-22T05:29:51.534Z,7.80
2017-09-22T05:30:51.531Z,8.20
2017-09-22T05:31:51.530Z,8.20
2017-09-22T05:32:51.530Z,8.20
2017-09-22T05:33:51.514Z,8.20
2017-09-22T05:34:51.549Z,8.20
2017-09-22T05:35:51.531Z,8.20
2017-09-22T05:36:51.484Z,8.20
2017-09-22T05:37:51.479Z,8.20
2017-09-22T05:38:51.516Z,8.20
2017-09-22T05:39:51.583Z,8.20
2017-09-22T05:40:51.586Z,8.40
2017-09-22T05:41:51.544Z,8.40
2017-09-22T05:42:51.522Z,8.40
2017-09-22T05:43:51.593Z,8.40
2017-09-22T05:44:51.538Z,8.40
2017-09-22T05:45:51.547Z,8.40
2017-09-22T05:46:51.512Z,8.40
2017-09-22T05:47:51.547Z,8.40
2017-09-22T05:48:51.590Z,8.40
2017-09-22T05:49:51.544Z,8.40
2017-09-22T05:50:51.494Z,8.20
2017-09-22T05:51:51.498Z,8.20
2017-09-22T05:52:51.550Z,8.20
2017-09-22T05:53:51.549Z,8.20
2017-09-22T05:54:51.579Z,8.20
2017-09-22T05:55:51.596Z,8.20
2017-09-22T05:56:51.546Z,8.20
2017-09-22T05:57:51.596Z,8.20
2017-09-22T05:58:51.600Z,8.20
2017-09-22T05:59:51.551Z,8.20
2017-09-22T06:00:51.500Z,7.40
2017-09-22T06:01:51.549Z,7.40
2017-09-22T06:02:51.505Z,7.40
2017-09-22T06:03:51.612Z,7.40
2017-09-22T06:04:51.597Z,7.40
2017-09-22T06:05:51.610Z,7.40
2017-09-22T06:06:51.534Z,7.40
2017-09-22T06:07:51.554Z,7.40
2017-09-22T06:08:51.540Z,7.40
2017-09-22T06:09:51.560Z,7.40
2017-09-22T06:10:51.605Z,9.50
2017-09-22T06:11:51.584Z,9.50
2017-09-22T06:12:51.509Z,9.50
2017-09-22T06:13:51.585Z,9.50
2017-09-22T06:14:51.634Z,9.50
2017-09-22T06:15:51.562Z,9.50
2017-09-22T06:16:51.562Z,9.50
2017-09-22T06:17:51.612Z,9.50
2017-09-22T06:18:51.608Z,9.50
2017-09-22T06:19:51.574Z,9.50
2017-09-22T06:20:51.507Z,9.70
2017-09-22T06:21:51.576Z,9.70
2017-09-22T06:22:51.540Z,9.70
2017-09-22T06:23:51.571Z,9.70
2017-09-22T06:24:51.514Z,9.70
2017-09-22T06:26:51.511Z,9.70
2017-09-22T06:27:51.538Z,9.70
2017-09-22T06:28:51.517Z,9.70
2017-09-22T06:29:51.552Z,9.70
2017-09-22T06:30:51.579Z,8.70
2017-09-22T06:31:51.565Z,8.70
2017-09-22T06:32:51.597Z,8.70
2017-09-22T06:33:51.571Z,8.70
2017-09-22T06:34:51.568Z,8.70
2017-09-22T06:35:51.577Z,8.70
2017-09-22T06:36:51.554Z,8.70
2017-09-22T06:37:51.623Z,8.70
2017-09-22T06:38:51.574Z,8.70
2017-09-22T06:39:51.573Z,8.70
2017-09-22T06:40:51.526Z,10.40
2017-09-22T06:41:51.575Z,10.40
2017-09-22T06:42:51.530Z,10.40
2017-09-22T06:43:51.538Z,10.40
2017-09-22T06:44:51.621Z,10.40
2017-09-22T06:45:51.543Z,10.40
2017-09-22T06:46:51.586Z,10.40
2017-09-22T06:47:51.585Z,10.40
2017-09-22T06:48:51.630Z,10.40
2017-09-22T06:49:51.660Z,10.40
2017-09-22T06:50:51.647Z,8.70
2017-09-22T06:51:51.583Z,8.70
2017-09-22T06:52:51.635Z,8.70
2017-09-22T06:53:51.614Z,8.70
2017-09-22T06:54:51.590Z,8.70
2017-09-22T06:56:51.567Z,8.70
2017-09-22T06:57:51.639Z,8.70
2017-09-22T06:58:51.628Z,8.70
2017-09-22T06:59:51.635Z,8.70
2017-09-22T07:00:51.551Z,8.00
2017-09-22T07:01:51.523Z,8.00
2017-09-22T07:02:51.525Z,8.00
2017-09-22T07:03:51.584Z,8.00
2017-09-22T07:04:51.554Z,8.00
2017-09-22T07:05:51.586Z,8.00
2017-09-22T07:06:51.557Z,8.00
2017-09-22T07:07:51.585Z,8.00
2017-09-22T07:08:51.526Z,8.00
2017-09-22T07:09:51.526Z,8.00
2017-09-22T07:10:51.537Z,9.80
2017-09-22T07:11:51.518Z,9.80
2017-09-22T07:12:51.531Z,9.80
2017-09-22T07:13:51.586Z,9.80
2017-09-22T07:14:51.512Z,9.80
2017-09-22T07:15:51.516Z,9.80
2017-09-22T07:16:51.515Z,9.80
2017-09-22T07:17:51.509Z,9.80
2017-09-22T07:18:51.544Z,9.80
2017-09-22T07:20:51.537Z,8.60
2017-09-22T07:21:51.565Z,8.60
2017-09-22T07:22:51.594Z,8.60
2017-09-22T07:23:51.574Z,8.60
2017-09-22T07:24:51.565Z,8.60
2017-09-22T07:25:51.538Z,8.60
2017-09-22T07:26:51.600Z,8.60
2017-09-22T07:27:51.539Z,8.60
2017-09-22T07:28:51.539Z,8.60
2017-09-22T07:29:51.568Z,8.60
2017-09-22T07:30:51.553Z,7.90
2017-09-22T07:31:51.561Z,7.90
2017-09-22T07:32:51.545Z,7.90
2017-09-22T07:33:51.573Z,7.90
2017-09-22T07:34:51.591Z,7.90
2017-09-22T07:35:51.616Z,7.90
2017-09-22T07:36:51.563Z,7.90
2017-09-22T07:37:51.572Z,7.90
2017-09-22T07:38:51.553Z,7.90
2017-09-22T07:39:51.528Z,7.90
2017-09-22T07:40:51.571Z,7.50
2017-09-22T07:41:51.641Z,7.50
2017-09-22T07:42:51.668Z,7.50
2017-09-22T07:43:51.610Z,7.50
2017-09-22T07:44:51.613Z,7.50
2017-09-22T07:45:51.621Z,7.50
2017-09-22T07:46:51.667Z,7.50
2017-09-22T07:47:51.666Z,7.50
2017-09-22T07:48:51.682Z,7.50
2017-09-22T07:49:51.657Z,7.50
2017-09-22T07:50:51.667Z,7.50
2017-09-22T07:51:51.626Z,7.60
2017-09-22T07:52:51.647Z,7.60
2017-09-22T07:53:51.652Z,7.60
2017-09-22T07:54:51.655Z,7.60
2017-09-22T07:55:51.562Z,7.60
2017-09-22T07:56:51.648Z,7.60
2017-09-22T07:57:51.581Z,7.60
2017-09-22T07:58:51.650Z,7.60
2017-09-22T07:59:51.621Z,7.60
2017-09-22T08:00:51.620Z,7.60
2017-09-22T08:01:51.573Z,7.60
2017-09-22T08:02:51.579Z,7.60
2017-09-22T08:03:51.703Z,7.60
2017-09-22T08:04:51.580Z,7.60
2017-09-22T08:05:51.627Z,7.60
2017-09-22T08:06:51.693Z,7.60
2017-09-22T08:07:51.635Z,7.60
2017-09-22T08:08:51.595Z,7.60
2017-09-22T08:09:51.627Z,7.60
2017-09-22T08:10:51.682Z,7.60
2017-09-22T08:11:51.642Z,7.70
2017-09-22T08:12:51.595Z,7.70
2017-09-22T08:13:51.609Z,7.70
2017-09-22T08:14:51.610Z,7.70
2017-09-22T08:15:51.604Z,7.70
2017-09-22T08:16:51.666Z,7.70
2017-09-22T08:17:51.572Z,7.70
2017-09-22T08:18:51.679Z,7.70
2017-09-22T08:19:51.627Z,7.70
2017-09-22T08:20:51.641Z,7.70
2017-09-22T08:21:51.598Z,7.10
2017-09-22T08:22:51.585Z,7.10
2017-09-22T08:23:51.599Z,7.10
2017-09-22T08:24:51.548Z,7.10
2017-09-22T08:25:51.557Z,7.10
2017-09-22T08:26:51.603Z,7.10
2017-09-22T08:27:51.579Z,7.10
2017-09-22T08:28:51.529Z,7.10
2017-09-22T08:29:51.641Z,7.10
2017-09-22T08:30:51.590Z,7.10
2017-09-22T08:31:51.628Z,8.30
2017-09-22T08:32:51.685Z,8.30
2017-09-22T08:33:51.646Z,8.30
2017-09-22T08:34:51.644Z,8.30
2017-09-22T08:35:51.651Z,8.30
2017-09-22T08:36:51.693Z,8.30
2017-09-22T08:37:51.644Z,8.30
2017-09-22T08:38:51.648Z,8.30
2017-09-22T08:39:51.595Z,8.30
2017-09-22T08:40:51.595Z,8.30
2017-09-22T08:41:51.594Z,7.90
2017-09-22T08:42:51.599Z,7.90
2017-09-22T08:43:51.617Z,7.90
2017-09-22T08:44:51.598Z,7.90
2017-09-22T08:45:51.633Z,7.90
2017-09-22T08:46:51.614Z,7.90
2017-09-22T08:47:51.615Z,7.90
2017-09-22T08:48:51.680Z,7.90
2017-09-22T08:49:51.656Z,7.90
2017-09-22T08:50:51.655Z,7.90
2017-09-22T08:51:51.666Z,7.60
2017-09-22T08:52:51.683Z,7.60
2017-09-22T08:53:51.701Z,7.60
2017-09-22T08:54:51.709Z,7.60
2017-09-22T08:55:51.634Z,7.60
2017-09-22T08:56:51.658Z,7.60
2017-09-22T08:57:51.635Z,7.60
2017-09-22T08:58:51.623Z,7.60
2017-09-22T08:59:51.666Z,7.60
2017-09-22T09:00:51.625Z,7.60
2017-09-22T09:01:51.603Z,9.50
2017-09-22T09:02:51.643Z,9.50
2017-09-22T09:03:51.623Z,9.50
2017-09-22T09:04:51.672Z,9.50
2017-09-22T09:05:51.706Z,9.50
2017-09-22T09:06:51.670Z,9.50
2017-09-22T09:07:51.625Z,9.50
2017-09-22T09:08:51.709Z,9.50
2017-09-22T09:09:51.663Z,9.50
2017-09-22T09:10:51.623Z,9.50
2017-09-22T09:11:51.645Z,8.30
2017-09-22T09:12:51.610Z,8.30
2017-09-22T09:13:51.649Z,8.30
2017-09-22T09:14:51.618Z,8.30
2017-09-22T09:15:51.666Z,8.30
2017-09-22T09:16:51.701Z,8.30
2017-09-22T09:17:51.619Z,8.30
2017-09-22T09:18:51.637Z,8.30
2017-09-22T09:19:51.609Z,8.30
2017-09-22T09:20:51.671Z,8.30
2017-09-22T09:21:51.653Z,8.80
2017-09-22T09:22:51.654Z,8.80
2017-09-22T09:23:51.721Z,8.80
2017-09-22T09:24:51.630Z,8.80
2017-09-22T09:25:51.631Z,8.80
2017-09-22T09:26:51.656Z,8.80
2017-09-22T09:27:51.674Z,8.80
2017-09-22T09:28:51.724Z,8.80
2017-09-22T09:29:51.656Z,8.80
2017-09-22T09:30:51.634Z,8.80
2017-09-22T09:31:51.727Z,7.60
2017-09-22T09:32:51.658Z,7.60
2017-09-22T09:33:51.649Z,7.60
2017-09-22T09:34:51.733Z,7.60
2017-09-22T09:35:51.731Z,7.60
2017-09-22T09:36:51.727Z,7.60
2017-09-22T09:37:51.731Z,7.60
2017-09-22T09:38:51.642Z,7.60
2017-09-22T09:39:51.633Z,7.60
2017-09-22T09:40:51.711Z,7.60
2017-09-22T09:41:51.678Z,9.60
2017-09-22T09:42:51.682Z,9.60
2017-09-22T09:43:51.665Z,9.60
2017-09-22T09:44:51.626Z,9.60
2017-09-22T09:45:51.731Z,9.60
2017-09-22T09:46:51.726Z,9.60
2017-09-22T09:47:51.715Z,9.60
2017-09-22T09:48:51.660Z,9.60
2017-09-22T09:49:51.659Z,9.60
2017-09-22T09:50:51.702Z,9.60
2017-09-22T09:51:51.639Z,8.90
2017-09-22T09:52:51.696Z,8.90
2017-09-22T09:53:51.636Z,8.90
2017-09-22T09:54:51.653Z,8.90
2017-09-22T09:55:51.703Z,8.90
2017-09-22T09:56:51.600Z,8.90
2017-09-22T09:57:51.641Z,8.90
2017-09-22T09:58:51.666Z,8.90
2017-09-22T09:59:51.689Z,8.90
2017-09-22T10:00:51.659Z,8.90
2017-09-22T10:01:51.637Z,9.30
2017-09-22T10:02:51.659Z,9.30
2017-09-22T10:03:51.661Z,9.30
2017-09-22T10:04:51.639Z,9.30
2017-09-22T10:05:51.692Z,9.30
2017-09-22T10:06:51.737Z,9.30
2017-09-22T10:07:51.736Z,9.30
2017-09-22T10:08:51.665Z,9.30
2017-09-22T10:09:51.677Z,9.30
2017-09-22T10:10:51.704Z,9.30
2017-09-22T10:11:51.746Z,10.80
2017-09-22T10:12:51.746Z,10.80
2017-09-22T10:13:51.677Z,10.80
2017-09-22T10:14:51.681Z,10.80
2017-09-22T10:15:51.698Z,10.80
2017-09-22T10:16:51.667Z,10.80
2017-09-22T10:17:51.871Z,10.80
2017-09-22T10:18:51.710Z,10.80
2017-09-22T10:19:51.684Z,10.80
2017-09-22T10:20:51.718Z,10.80
2017-09-22T10:21:51.644Z,10.00
2017-09-22T10:22:51.670Z,10.00
2017-09-22T10:23:51.648Z,10.00
2017-09-22T10:24:51.668Z,10.00
2017-09-22T10:25:51.649Z,10.00
2017-09-22T10:26:51.646Z,10.00
2017-09-22T10:27:51.776Z,10.00
2017-09-22T10:28:51.675Z,10.00
2017-09-22T10:29:51.712Z,10.00
2017-09-22T10:30:51.676Z,10.00
2017-09-22T10:31:51.653Z,8.80
2017-09-22T10:32:51.701Z,8.80
2017-09-22T10:33:51.670Z,8.80
2017-09-22T10:34:51.653Z,8.80
2017-09-22T10:35:51.630Z,8.80
2017-09-22T10:36:51.654Z,8.80
2017-09-22T10:37:51.666Z,8.80
2017-09-22T10:38:51.664Z,8.80
2017-09-22T10:39:51.657Z,8.80
2017-09-22T10:40:51.663Z,8.80
2017-09-22T10:41:51.698Z,8.30
2017-09-22T10:42:51.765Z,8.30
2017-09-22T10:43:51.772Z,8.30
2017-09-22T10:44:51.766Z,8.30
2017-09-22T10:45:51.730Z,8.30
2017-09-22T10:46:51.702Z,8.30
2017-09-22T10:47:51.722Z,8.30
2017-09-22T10:48:51.723Z,8.30
2017-09-22T10:49:51.732Z,8.30
2017-09-22T10:50:51.774Z,8.30
2017-09-22T10:51:51.733Z,7.60
2017-09-22T10:52:51.771Z,7.60
2017-09-22T10:53:51.727Z,7.60
2017-09-22T10:54:51.724Z,7.60
2017-09-22T10:55:51.726Z,7.60
2017-09-22T10:56:51.794Z,7.60
2017-09-22T10:57:51.706Z,7.60
2017-09-22T10:58:51.674Z,7.60
2017-09-22T10:59:51.729Z,7.60
2017-09-22T11:00:51.696Z,7.60
2017-09-22T11:01:51.731Z,6.90
2017-09-22T11:02:51.739Z,6.90
2017-09-22T11:03:51.675Z,6.90
2017-09-22T11:04:51.740Z,6.90
2017-09-22T11:05:51.730Z,6.90
2017-09-22T11:07:51.760Z,6.90
2017-09-22T11:08:51.743Z,6.90
2017-09-22T11:09:51.746Z,6.90
2017-09-22T11:10:51.737Z,6.90
2017-09-22T11:11:51.704Z,7.90
2017-09-22T11:12:51.786Z,7.90
2017-09-22T11:13:51.717Z,7.90
2017-09-22T11:14:51.742Z,7.90
2017-09-22T11:15:51.736Z,7.90
2017-09-22T11:16:51.779Z,7.90
2017-09-22T11:17:51.720Z,7.90
2017-09-22T11:18:51.770Z,7.90
2017-09-22T11:19:51.741Z,7.90
2017-09-22T11:20:51.768Z,7.90
2017-09-22T11:21:51.791Z,7.30
2017-09-22T11:22:51.749Z,7.30
2017-09-22T11:23:51.752Z,7.30
2017-09-22T11:24:51.695Z,7.30
2017-09-22T11:25:51.697Z,7.30
2017-09-22T11:26:51.755Z,7.30
2017-09-22T11:27:51.744Z,7.30
2017-09-22T11:28:51.798Z,7.30
2017-09-22T11:29:51.794Z,7.30
2017-09-22T11:30:51.746Z,7.30
2017-09-22T11:31:51.756Z,6.30
2017-09-22T11:32:51.761Z,6.30
2017-09-22T11:33:51.801Z,6.30
2017-09-22T11:34:51.739Z,6.30
2017-09-22T11:35:51.749Z,6.30
2017-09-22T11:36:51.696Z,6.30
2017-09-22T11:37:51.698Z,6.30
2017-09-22T11:38:51.800Z,6.30
2017-09-22T11:39:51.758Z,6.30
2017-09-22T11:40:51.797Z,6.30
2017-09-22T11:41:51.691Z,7.30
2017-09-22T11:42:51.722Z,7.30
2017-09-22T11:43:51.687Z,7.30
2017-09-22T11:44:51.717Z,7.30
2017-09-22T11:45:51.689Z,7.30
2017-09-22T11:46:51.693Z,7.30
2017-09-22T11:47:51.720Z,7.30
2017-09-22T11:48:51.751Z,7.30
2017-09-22T11:49:51.704Z,7.30
2017-09-22T11:50:51.721Z,7.30
2017-09-22T11:51:51.729Z,6.10
2017-09-22T11:52:51.735Z,6.10
2017-09-22T11:53:51.794Z,6.10
2017-09-22T11:54:51.752Z,6.10
2017-09-22T11:55:51.769Z,6.10
2017-09-22T11:56:51.757Z,6.10
2017-09-22T11:57:51.792Z,6.10
2017-09-22T11:58:51.731Z,6.10
2017-09-22T11:59:51.710Z,6.10
2017-09-22T12:00:51.744Z,6.10
2017-09-22T12:01:51.730Z,6.50
2017-09-22T12:02:51.750Z,6.50
2017-09-22T12:03:51.766Z,6.50
2017-09-22T12:04:51.748Z,6.50
2017-09-22T12:05:51.777Z,6.50
2017-09-22T12:06:51.750Z,6.50
2017-09-22T12:07:51.753Z,6.50
2017-09-22T12:08:51.772Z,6.50
2017-09-22T12:09:51.815Z,6.50
2017-09-22T12:10:51.732Z,6.50
2017-09-22T12:11:51.717Z,5.80
2017-09-22T12:12:51.754Z,5.80
2017-09-22T12:13:51.824Z,5.80
2017-09-22T12:14:51.770Z,5.80
2017-09-22T12:15:51.776Z,5.80
2017-09-22T12:16:51.722Z,5.80
2017-09-22T12:17:51.819Z,5.80
2017-09-22T12:18:51.739Z,5.80
2017-09-22T12:19:51.816Z,5.80
2017-09-22T12:20:51.779Z,5.80
2017-09-22T12:21:51.748Z,6.20
2017-09-22T12:22:51.756Z,6.20
2017-09-22T12:23:51.745Z,6.20
2017-09-22T12:24:51.789Z,6.20
2017-09-22T12:25:51.807Z,6.20
2017-09-22T12:26:51.748Z,6.20
2017-09-22T12:27:51.726Z,6.20
2017-09-22T12:28:51.729Z,6.20
2017-09-22T12:29:51.727Z,6.20
2017-09-22T12:30:51.828Z,6.20
2017-09-22T12:31:51.754Z,7.60
2017-09-22T12:32:51.751Z,7.60
2017-09-22T12:33:51.799Z,7.60
2017-09-22T12:34:51.820Z,7.60
2017-09-22T12:35:51.817Z,7.60
2017-09-22T12:36:51.755Z,7.60
2017-09-22T12:37:51.794Z,7.60
2017-09-22T12:38:51.817Z,7.60
2017-09-22T12:39:51.801Z,7.60
2017-09-22T12:40:51.769Z,7.60
2017-09-22T12:41:51.735Z,5.70
2017-09-22T12:42:51.818Z,5.70
2017-09-22T12:43:51.792Z,5.70
2017-09-22T12:44:51.837Z,5.70
2017-09-22T12:45:51.771Z,5.70
2017-09-22T12:46:51.758Z,5.70
2017-09-22T12:47:51.740Z,5.70
2017-09-22T12:48:51.791Z,5.70
2017-09-22T12:49:51.850Z,5.70
2017-09-22T12:50:51.742Z,5.70
2017-09-22T12:51:51.745Z,6.40
2017-09-22T12:52:51.797Z,6.40
2017-09-22T12:53:51.841Z,6.40
2017-09-22T12:54:51.799Z,6.40
2017-09-22T12:55:51.800Z,6.40
2017-09-22T12:56:51.803Z,6.40
2017-09-22T12:57:51.808Z,6.40
2017-09-22T12:58:51.847Z,6.40
2017-09-22T12:59:51.854Z,6.40
2017-09-22T13:00:51.848Z,6.40
2017-09-22T13:01:51.857Z,5.60
2017-09-22T13:02:51.814Z,5.60
2017-09-22T13:03:51.784Z,5.60
2017-09-22T13:04:51.808Z,5.60
2017-09-22T13:05:51.785Z,5.60
2017-09-22T13:06:51.860Z,5.60
2017-09-22T13:07:51.785Z,5.60
2017-09-22T13:08:51.782Z,5.60
2017-09-22T13:09:51.838Z,5.60
2017-09-22T13:10:51.819Z,5.60
2017-09-22T13:11:51.808Z,4.80
2017-09-22T13:12:51.792Z,4.80
2017-09-22T13:13:51.888Z,4.80
2017-09-22T13:14:51.814Z,4.80
2017-09-22T13:15:51.818Z,4.80
2017-09-22T13:16:51.758Z,4.80
2017-09-22T13:17:51.790Z,4.80
2017-09-22T13:18:51.762Z,4.80
2017-09-22T13:19:51.806Z,4.80
2017-09-22T13:20:51.863Z,4.80